Davis City, IA (50065)

2:23 AM CDT on May 24, 2015 (GMT -0500)
Lamoni Municipal | | Change Station
CLOSE
Current Station
Airport
Location: Lamoni,
Elevation: 1132 ft
Nearby Weather Stations

Elev 1132 ft 40.63 °N, 93.90 °W | Updated 22 minutes ago

Rain
Rain
61 °F
Feels Like 61 °F
N
12
Wind Variable Wind from SE
Gusts 20 mph

Today
High -- | Low -- °F
--% Chance of Precip.
Yesterday
High -- | Low -- °F
Precip. -- in
5:51 AM 8:33 PM
Waxing Crescent, 37% visible
Pressure 30.05 in
Visibility 5.0 miles
Clouds Few 900 ft
Mostly Cloudy 7500 ft
Overcast 9500 ft
Dew Point 58 °F
Humidity 90%
Rainfall 0.07 in
Snow Depth Not available.
UV 0 out of 12
Pollen 7.60 out of 12
Air Quality Not available.
Flu Activity Sporadic
SPECI KLWD 240701Z AUTO 14010G17KT 5SM RA BR FEW009 BKN075 OVC095 16/14 A3005 RMK AO2 P0002 T01610144

More Conditions Fewer Conditions

Pressure 30.05 in
Visibility 5.0 miles
Clouds Few 900 ft
Mostly Cloudy 7500 ft
Overcast 9500 ft
Dew Point 58 °F
Humidity 90%
Rainfall 0.07 in
Snow Depth Not available.
UV 0 out of 12
Pollen 7.60 out of 12
Air Quality Not available.
Flu Activity Sporadic
SPECI KLWD 240701Z AUTO 14010G17KT 5SM RA BR FEW009 BKN075 OVC095 16/14 A3005 RMK AO2 P0002 T01610144

More Conditions Fewer Conditions

10-Day Weather Forecast

Almanac

Astronomy

May. 24, 2015 Rise Set
Actual Time
Civil Twilight
Nautical Twilight
Astronomical Twilight
Moon
Length of Visible Light
Length of Day
Tomorrow will be .
, % of the Moon is Illuminated

Today's Extremes

State Highs State Lows

Community

WunderPhotos

Upload Photos

1,823,698 photos uploaded!

WunderBlogs® & News

Nearby

Air Quality

  Air Quality AQ Index Pollutant
Not available.

Snow Depth

Station Depth Elevation

Earthquake Activity

City Distance Mag. Time & Date
Minimum magnitude displayed is 2.5.

Coastal Water Temperatures

Place Temperature

Stations

Nearby Weather Stations

Station Location Temp. Windchill Dew Point Humidity Wind Precip. Elev Updated Type